Time;durP1;ratioP1;P1;durP2;ratioP2;P2;SDS_P1;SDS_P2;PMS_P1;PMS_P2;Temp;Humidity;BMP_temperature;BMP_pressure;BME280_temperature;BME280_humidity;BME280_pressure;Samples;Min_cycle;Max_cycle;Signal;HPM_P1;HPM_P2
2023/06/11 00:01:08;;;;;;;5.68;4.97;;;;;;;;;;5010421;28;20171;-69
2023/06/11 00:03:34;;;;;;;6.70;5.15;;;;;;;;;;5012177;28;20210;-70
2023/06/11 00:05:59;;;;;;;10.35;4.95;;;;;;;;;;4989992;28;20184;-70
2023/06/11 00:08:25;;;;;;;5.60;5.10;;;;;;;;;;5004741;28;20671;-69
2023/06/11 00:10:50;;;;;;;6.72;5.18;;;;;;;;;;5010248;28;20190;-71
2023/06/11 00:13:15;;;;;;;5.60;4.97;;;;;;;;;;5035975;22;21145;-77
2023/06/11 00:15:41;;;;;;;7.22;5.60;;;;;;;;;;5050646;28;20221;-77
2023/06/11 00:18:06;;;;;;;7.20;5.37;;;;;;;;;;5051343;28;20248;-76
2023/06/11 00:20:32;;;;;;;6.90;5.22;;;;;;;;;;5041592;28;20870;-77
2023/06/11 00:22:57;;;;;;;6.97;5.13;;;;;;;;;;5029451;28;20212;-76
2023/06/11 00:25:23;;;;;;;6.88;5.05;;;;;;;;;;5023993;28;20655;-77
2023/06/11 00:27:48;;;;;;;6.30;5.53;;;;;;;;;;5043251;28;20201;-77
2023/06/11 00:30:13;;;;;;;6.30;5.32;;;;;;;;;;5047175;28;20194;-77
2023/06/11 00:32:38;;;;;;;7.90;5.32;;;;;;;;;;5038517;28;20671;-77
2023/06/11 00:35:08;;;;;;;6.88;5.50;;;;;;;;;;5032187;28;20229;-77
2023/06/11 00:37:34;;;;;;;7.95;5.43;;;;;;;;;;5040445;28;20198;-77
2023/06/11 00:39:59;;;;;;;5.97;5.07;;;;;;;;;;5035802;28;20170;-76
2023/06/11 00:42:24;;;;;;;7.55;5.70;;;;;;;;;;5057834;28;20206;-76
2023/06/11 00:44:51;;;;;;;6.95;5.25;;;;;;;;;;5049329;28;20171;-77
2023/06/11 00:47:16;;;;;;;6.63;5.53;;;;;;;;;;5032011;28;20193;-78
2023/06/11 00:49:42;;;;;;;9.10;5.78;;;;;;;;;;5050712;28;20165;-77
2023/06/11 00:52:12;;;;;;;6.15;5.30;;;;;;;;;;5051214;28;20173;-77
2023/06/11 00:54:37;;;;;;;5.40;4.90;;;;;;;;;;5030416;28;20639;-76
2023/06/11 00:57:03;;;;;;;10.55;6.03;;;;;;;;;;5044044;28;20347;-76
2023/06/11 00:59:28;;;;;;;6.60;5.53;;;;;;;;;;5048926;28;20180;-76
2023/06/11 01:02:06;;;;;;;7.68;6.07;;;;;;;;;;5048920;28;20174;-77
2023/06/11 01:04:33;;;;;;;8.40;6.72;;;;;;;;;;5030084;28;20264;-76
2023/06/11 01:07:00;;;;;;;7.18;5.78;;;;;;;;;;5044653;28;20631;-76
2023/06/11 01:09:27;;;;;;;9.30;6.40;;;;;;;;;;5029174;28;20213;-76
2023/06/11 01:11:54;;;;;;;7.55;6.22;;;;;;;;;;5025397;28;20288;-76
2023/06/11 01:14:20;;;;;;;6.55;5.72;;;;;;;;;;5047578;28;20284;-76
2023/06/11 01:16:45;;;;;;;7.50;6.47;;;;;;;;;;5046174;28;20301;-76
2023/06/11 01:19:28;;;;;;;9.30;6.17;;;;;;;;;;5042027;28;20182;-76
2023/06/11 01:21:56;;;;;;;8.65;6.07;;;;;;;;;;5046687;28;20419;-76
2023/06/11 01:24:28;;;;;;;11.13;5.40;;;;;;;;;;5045827;28;20209;-76
2023/06/11 01:27:00;;;;;;;9.43;5.80;;;;;;;;;;5046624;28;20201;-76
2023/06/11 01:29:26;;;;;;;8.57;5.85;;;;;;;;;;5043544;28;20481;-76
2023/06/11 01:31:52;;;;;;;7.40;5.72;;;;;;;;;;5022344;28;20196;-76
2023/06/11 01:34:18;;;;;;;7.45;5.80;;;;;;;;;;5038207;28;20285;-76
2023/06/11 01:36:43;;;;;;;7.03;5.85;;;;;;;;;;5045738;28;20304;-77
2023/06/11 01:39:08;;;;;;;7.95;5.93;;;;;;;;;;5047911;28;20244;-76
2023/06/11 01:41:36;;;;;;;8.48;5.95;;;;;;;;;;5041099;28;20179;-76
2023/06/11 01:44:01;;;;;;;7.03;5.97;;;;;;;;;;5048043;28;20929;-76
2023/06/11 01:46:26;;;;;;;11.18;6.05;;;;;;;;;;5047565;28;20178;-76
2023/06/11 01:48:52;;;;;;;6.55;5.35;;;;;;;;;;5027024;28;20186;-76
2023/06/11 01:51:17;;;;;;;7.72;5.88;;;;;;;;;;5047999;28;20178;-76
2023/06/11 01:53:43;;;;;;;10.05;6.75;;;;;;;;;;5044945;28;20581;-76
2023/06/11 01:56:08;;;;;;;7.05;6.35;;;;;;;;;;5029526;28;20619;-76
2023/06/11 01:58:33;;;;;;;7.93;6.22;;;;;;;;;;5045714;28;20169;-76
2023/06/11 02:00:59;;;;;;;7.28;6.38;;;;;;;;;;5049552;28;20170;-76
2023/06/11 02:03:25;;;;;;;9.10;6.63;;;;;;;;;;5050266;28;20194;-76
2023/06/11 02:05:50;;;;;;;7.97;7.18;;;;;;;;;;5048154;28;20199;-77
2023/06/11 02:08:15;;;;;;;13.23;7.72;;;;;;;;;;5049476;28;20667;-76
2023/06/11 02:10:41;;;;;;;9.23;7.72;;;;;;;;;;5027031;28;20552;-76
2023/06/11 02:13:07;;;;;;;8.02;7.00;;;;;;;;;;5048233;28;20209;-76
2023/06/11 02:15:32;;;;;;;8.73;7.82;;;;;;;;;;5030981;28;20216;-76
2023/06/11 02:17:57;;;;;;;7.55;6.68;;;;;;;;;;5044492;28;20189;-76
2023/06/11 02:20:22;;;;;;;9.38;6.55;;;;;;;;;;5037519;28;20182;-77
2023/06/11 02:22:48;;;;;;;9.85;7.18;;;;;;;;;;5020970;28;20236;-77
2023/06/11 02:25:13;;;;;;;6.97;6.38;;;;;;;;;;5044057;28;20190;-76
2023/06/11 02:27:38;;;;;;;10.82;7.95;;;;;;;;;;5045397;28;20178;-77
2023/06/11 02:30:04;;;;;;;10.85;7.55;;;;;;;;;;5045308;28;20178;-76
2023/06/11 02:32:30;;;;;;;9.27;8.27;;;;;;;;;;5043982;28;20205;-77
2023/06/11 02:34:55;;;;;;;7.95;7.15;;;;;;;;;;5026851;28;20186;-76
2023/06/11 02:37:20;;;;;;;8.10;7.10;;;;;;;;;;5048607;28;20555;-77
2023/06/11 02:39:45;;;;;;;8.88;7.25;;;;;;;;;;5044630;28;20202;-76
2023/06/11 02:42:11;;;;;;;9.30;7.90;;;;;;;;;;5043886;28;20178;-76
2023/06/11 02:44:36;;;;;;;11.30;8.15;;;;;;;;;;5044998;28;20169;-77
2023/06/11 02:47:01;;;;;;;8.73;7.82;;;;;;;;;;5043919;28;20307;-76
2023/06/11 02:49:26;;;;;;;9.20;7.43;;;;;;;;;;5045539;28;20316;-76
2023/06/11 02:51:51;;;;;;;7.70;6.97;;;;;;;;;;5047768;28;20180;-76
2023/06/11 02:54:17;;;;;;;9.88;7.90;;;;;;;;;;5036364;28;20582;-77
2023/06/11 02:56:42;;;;;;;7.55;6.82;;;;;;;;;;5043896;28;20193;-76
2023/06/11 02:59:07;;;;;;;9.68;8.10;;;;;;;;;;5051298;28;20227;-77
2023/06/11 03:01:32;;;;;;;9.05;8.15;;;;;;;;;;5028177;28;20231;-76
2023/06/11 03:03:57;;;;;;;10.07;7.97;;;;;;;;;;5029259;28;20194;-77
2023/06/11 03:06:23;;;;;;;12.90;8.23;;;;;;;;;;5048073;28;20243;-77
2023/06/11 03:08:48;;;;;;;8.93;7.53;;;;;;;;;;5028193;28;20252;-76
2023/06/11 03:11:14;;;;;;;9.18;8.18;;;;;;;;;;5051333;28;20182;-77
2023/06/11 03:13:39;;;;;;;13.88;7.90;;;;;;;;;;5047943;28;20213;-77
2023/06/11 03:16:04;;;;;;;9.73;7.43;;;;;;;;;;5031418;28;20202;-77
2023/06/11 03:18:29;;;;;;;9.80;7.57;;;;;;;;;;5041099;28;20186;-77
2023/06/11 03:20:55;;;;;;;10.98;7.43;;;;;;;;;;5047419;28;20190;-77
2023/06/11 03:23:20;;;;;;;11.52;7.75;;;;;;;;;;5050214;28;20232;-76
2023/06/11 03:25:45;;;;;;;9.88;7.97;;;;;;;;;;5051407;28;20644;-76
2023/06/11 03:28:10;;;;;;;8.73;7.82;;;;;;;;;;5045621;28;20190;-76
2023/06/11 03:30:35;;;;;;;8.82;8.02;;;;;;;;;;5021621;28;20211;-76
2023/06/11 03:33:01;;;;;;;10.55;7.75;;;;;;;;;;5049655;28;20708;-77
2023/06/11 03:35:26;;;;;;;11.63;8.35;;;;;;;;;;5053020;28;20251;-77
2023/06/11 03:37:51;;;;;;;11.48;9.00;;;;;;;;;;5040144;28;20609;-77
2023/06/11 03:40:16;;;;;;;9.35;7.47;;;;;;;;;;5044096;28;20181;-76
2023/06/11 03:42:42;;;;;;;12.57;8.98;;;;;;;;;;5030492;28;20721;-76
2023/06/11 03:45:07;;;;;;;11.57;7.85;;;;;;;;;;5051844;28;20201;-76
2023/06/11 03:47:32;;;;;;;9.95;8.55;;;;;;;;;;5023983;28;20655;-76
2023/06/11 03:49:58;;;;;;;11.85;8.70;;;;;;;;;;5043540;28;20177;-76
2023/06/11 03:52:23;;;;;;;12.13;8.75;;;;;;;;;;5045266;28;20198;-76
2023/06/11 03:54:48;;;;;;;11.82;9.20;;;;;;;;;;5054356;28;20228;-76
2023/06/11 03:57:13;;;;;;;9.57;8.38;;;;;;;;;;5048874;28;20210;-76
2023/06/11 03:59:39;;;;;;;11.15;7.82;;;;;;;;;;5043264;28;20178;-76
2023/06/11 04:02:07;;;;;;;10.65;8.65;;;;;;;;;;5043037;28;20174;-76
2023/06/11 04:04:32;;;;;;;9.82;8.82;;;;;;;;;;5051510;28;20551;-76
2023/06/11 04:06:58;;;;;;;9.65;8.65;;;;;;;;;;5048827;28;20178;-76
2023/06/11 04:09:23;;;;;;;11.05;8.95;;;;;;;;;;5033829;28;20181;-76
2023/06/11 04:11:48;;;;;;;10.50;9.07;;;;;;;;;;5019987;28;20650;-76
2023/06/11 04:14:13;;;;;;;9.48;8.30;;;;;;;;;;5049768;28;20221;-77
2023/06/11 04:16:39;;;;;;;11.05;9.15;;;;;;;;;;5050313;28;20228;-76
2023/06/11 04:19:07;;;;;;;9.15;8.25;;;;;;;;;;5032502;28;20627;-76
2023/06/11 04:21:32;;;;;;;10.25;7.47;;;;;;;;;;5039962;28;20207;-76
2023/06/11 04:23:57;;;;;;;9.80;8.07;;;;;;;;;;5045269;28;20228;-76
2023/06/11 04:26:23;;;;;;;8.95;7.40;;;;;;;;;;5049821;28;20263;-76
2023/06/11 04:28:49;;;;;;;9.00;7.88;;;;;;;;;;5024996;28;20178;-77
2023/06/11 04:31:14;;;;;;;11.40;7.82;;;;;;;;;;5047122;28;20558;-77
2023/06/11 04:33:40;;;;;;;8.60;7.35;;;;;;;;;;5049461;28;20211;-77
2023/06/11 04:36:09;;;;;;;9.02;7.78;;;;;;;;;;5034770;28;20223;-77
2023/06/11 04:38:36;;;;;;;8.57;7.53;;;;;;;;;;5048816;28;20178;-77
2023/06/11 04:41:02;;;;;;;9.20;7.68;;;;;;;;;;5033841;28;20185;-77
2023/06/11 04:43:27;;;;;;;10.43;7.97;;;;;;;;;;5025711;28;20194;-77
2023/06/11 04:45:55;;;;;;;9.68;8.68;;;;;;;;;;5031342;28;20551;-77
2023/06/11 04:48:24;;;;;;;8.80;7.90;;;;;;;;;;5048622;28;20594;-77
2023/06/11 04:50:51;;;;;;;17.10;6.97;;;;;;;;;;5030294;28;20177;-76
2023/06/11 04:53:23;;;;;;;9.65;8.68;;;;;;;;;;5049567;28;20209;-76
2023/06/11 04:55:54;;;;;;;13.75;7.07;;;;;;;;;;5029068;28;20209;-76
2023/06/11 04:58:21;;;;;;;8.63;7.78;;;;;;;;;;5028651;28;20200;-76
2023/06/11 05:00:47;;;;;;;8.57;7.43;;;;;;;;;;5043217;28;20717;-75
2023/06/11 05:03:12;;;;;;;8.77;7.38;;;;;;;;;;5026987;28;20206;-76
2023/06/11 05:05:38;;;;;;;8.93;8.02;;;;;;;;;;5032842;28;20204;-76
2023/06/11 05:08:03;;;;;;;8.73;7.85;;;;;;;;;;5045380;28;20678;-76
2023/06/11 05:10:28;;;;;;;8.27;7.47;;;;;;;;;;5048615;28;20177;-76
2023/06/11 05:12:53;;;;;;;9.27;7.05;;;;;;;;;;5050901;28;20236;-76
2023/06/11 05:15:19;;;;;;;9.88;8.88;;;;;;;;;;5053479;28;20707;-76
2023/06/11 05:17:45;;;;;;;8.35;7.40;;;;;;;;;;5047109;28;20251;-76
2023/06/11 05:20:11;;;;;;;9.73;7.65;;;;;;;;;;5031889;28;20181;-76
2023/06/11 05:22:36;;;;;;;9.25;8.38;;;;;;;;;;5023292;28;20198;-76
2023/06/11 05:25:01;;;;;;;8.57;7.70;;;;;;;;;;5026733;28;20200;-76
2023/06/11 05:27:29;;;;;;;10.30;7.15;;;;;;;;;;5041876;28;20888;-76
2023/06/11 05:29:54;;;;;;;9.63;8.05;;;;;;;;;;5040023;28;20236;-76
2023/06/11 05:32:19;;;;;;;11.90;8.30;;;;;;;;;;5043220;28;20178;-76
2023/06/11 05:34:45;;;;;;;9.38;8.40;;;;;;;;;;5042794;28;20181;-76
2023/06/11 05:37:10;;;;;;;9.75;8.07;;;;;;;;;;5035747;28;20721;-76
2023/06/11 05:39:35;;;;;;;8.90;8.00;;;;;;;;;;5044453;28;20269;-76
2023/06/11 05:42:01;;;;;;;9.25;7.93;;;;;;;;;;5022576;28;20652;-76
2023/06/11 05:44:26;;;;;;;9.25;8.27;;;;;;;;;;5037474;28;20205;-76
2023/06/11 05:46:51;;;;;;;12.23;8.63;;;;;;;;;;5027152;28;20672;-76
2023/06/11 05:49:16;;;;;;;8.52;7.72;;;;;;;;;;5033084;28;20422;-76
2023/06/11 05:51:41;;;;;;;8.98;7.90;;;;;;;;;;5050415;28;20181;-76
2023/06/11 05:54:07;;;;;;;11.20;7.70;;;;;;;;;;5040342;28;20198;-77
2023/06/11 05:56:32;;;;;;;15.38;8.23;;;;;;;;;;5039705;28;20205;-76
2023/06/11 05:58:58;;;;;;;10.60;8.25;;;;;;;;;;5025054;28;20177;-76
2023/06/11 06:01:23;;;;;;;11.85;8.38;;;;;;;;;;5040372;28;20313;-76
2023/06/11 06:03:48;;;;;;;8.50;7.63;;;;;;;;;;5042246;28;20558;-76
2023/06/11 06:06:13;;;;;;;11.37;7.67;;;;;;;;;;5045448;28;20678;-76
2023/06/11 06:08:39;;;;;;;8.65;7.85;;;;;;;;;;5043696;28;20512;-77
2023/06/11 06:11:04;;;;;;;9.82;7.82;;;;;;;;;;5048031;28;20228;-77
2023/06/11 06:13:29;;;;;;;9.07;8.20;;;;;;;;;;5066486;22;20704;-71
2023/06/11 06:15:55;;;;;;;8.90;8.02;;;;;;;;;;5068508;28;20681;-72
2023/06/11 06:18:20;;;;;;;8.07;6.97;;;;;;;;;;5067940;28;20634;-71
2023/06/11 06:20:46;;;;;;;9.15;7.38;;;;;;;;;;5065235;28;20665;-71
2023/06/11 06:23:11;;;;;;;13.75;9.35;;;;;;;;;;5063428;28;20197;-71
2023/06/11 06:25:37;;;;;;;10.52;7.35;;;;;;;;;;5063758;28;20669;-68
2023/06/11 06:28:03;;;;;;;8.18;7.38;;;;;;;;;;5063808;28;20188;-68
2023/06/11 06:30:28;;;;;;;8.73;7.57;;;;;;;;;;5064943;28;20177;-71
2023/06/11 06:32:53;;;;;;;11.90;8.07;;;;;;;;;;5062031;28;20668;-69
2023/06/11 06:35:19;;;;;;;11.35;7.25;;;;;;;;;;5069776;28;20498;-70
2023/06/11 06:37:44;;;;;;;10.15;7.47;;;;;;;;;;5064046;28;20652;-71
2023/06/11 06:40:10;;;;;;;8.37;7.47;;;;;;;;;;5068933;28;20176;-70
2023/06/11 06:42:36;;;;;;;7.22;6.53;;;;;;;;;;5055369;28;20406;-69
2023/06/11 06:45:01;;;;;;;11.07;7.35;;;;;;;;;;5068679;28;20299;-69
2023/06/11 06:47:26;;;;;;;8.13;7.10;;;;;;;;;;5066844;28;20205;-69
2023/06/11 06:49:51;;;;;;;9.37;8.00;;;;;;;;;;5062009;28;20595;-69
2023/06/11 06:52:17;;;;;;;7.28;6.57;;;;;;;;;;5065714;28;20414;-70
2023/06/11 06:54:42;;;;;;;8.17;6.90;;;;;;;;;;5063444;28;20711;-68
2023/06/11 06:57:09;;;;;;;9.97;6.97;;;;;;;;;;5069309;28;20475;-69
2023/06/11 06:59:34;;;;;;;8.20;7.40;;;;;;;;;;5065079;28;20960;-70
2023/06/11 07:01:59;;;;;;;8.35;6.93;;;;;;;;;;5064498;28;20173;-69
2023/06/11 07:04:24;;;;;;;7.30;6.63;;;;;;;;;;5061084;28;20577;-69
2023/06/11 07:06:50;;;;;;;7.72;6.97;;;;;;;;;;5061355;28;20808;-69
2023/06/11 07:09:15;;;;;;;7.90;7.10;;;;;;;;;;5069897;28;20649;-69
2023/06/11 07:11:40;;;;;;;7.65;6.85;;;;;;;;;;5067715;28;20226;-70
2023/06/11 07:14:06;;;;;;;7.97;7.17;;;;;;;;;;5063081;28;20208;-70
2023/06/11 07:16:31;;;;;;;12.63;6.70;;;;;;;;;;5065971;28;20454;-69
2023/06/11 07:18:56;;;;;;;7.13;6.43;;;;;;;;;;5067099;28;20414;-70
2023/06/11 07:21:23;;;;;;;9.88;7.32;;;;;;;;;;5060654;28;20178;-70
2023/06/11 07:23:48;;;;;;;9.00;7.78;;;;;;;;;;5069786;28;20264;-70
2023/06/11 07:26:15;;;;;;;12.95;6.75;;;;;;;;;;5066901;28;20642;-70
2023/06/11 07:28:41;;;;;;;6.57;5.82;;;;;;;;;;5063410;28;20650;-76
2023/06/11 07:31:06;;;;;;;10.27;6.85;;;;;;;;;;5067612;28;20223;-76
2023/06/11 07:33:31;;;;;;;7.15;6.55;;;;;;;;;;5068619;28;20224;-77
2023/06/11 07:35:56;;;;;;;11.63;7.07;;;;;;;;;;5064239;28;20209;-76
2023/06/11 07:38:22;;;;;;;8.45;7.15;;;;;;;;;;5075468;28;20216;-77
2023/06/11 07:40:47;;;;;;;8.52;7.32;;;;;;;;;;5085144;28;20188;-76
2023/06/11 07:43:12;;;;;;;8.27;7.43;;;;;;;;;;5064854;28;20197;-77
2023/06/11 07:45:37;;;;;;;8.38;7.43;;;;;;;;;;5077424;28;20410;-76
2023/06/11 07:48:03;;;;;;;9.07;6.68;;;;;;;;;;5089847;28;20207;-75
2023/06/11 07:50:28;;;;;;;8.18;7.13;;;;;;;;;;5088841;28;20195;-76
2023/06/11 07:52:53;;;;;;;6.97;6.33;;;;;;;;;;5093858;28;20193;-75
2023/06/11 07:55:18;;;;;;;10.27;8.37;;;;;;;;;;5079294;28;20410;-77
2023/06/11 07:57:44;;;;;;;8.07;6.90;;;;;;;;;;5075945;28;20419;-76
2023/06/11 08:00:12;;;;;;;7.72;7.03;;;;;;;;;;5081312;28;20429;-77
2023/06/11 08:02:39;;;;;;;8.13;7.32;;;;;;;;;;5083065;28;20173;-76
2023/06/11 08:05:04;;;;;;;7.10;6.50;;;;;;;;;;5077479;28;20192;-77
2023/06/11 08:07:29;;;;;;;9.10;6.65;;;;;;;;;;5071058;28;20646;-77
2023/06/11 08:09:55;;;;;;;8.00;7.27;;;;;;;;;;5073417;28;20174;-77
2023/06/11 08:12:20;;;;;;;9.23;7.13;;;;;;;;;;5072154;28;20425;-76
2023/06/11 08:14:45;;;;;;;8.88;7.15;;;;;;;;;;5066131;28;20594;-76
2023/06/11 08:17:11;;;;;;;8.63;7.20;;;;;;;;;;5065764;28;20204;-76
2023/06/11 08:19:36;;;;;;;9.95;7.45;;;;;;;;;;5070558;28;20394;-77
2023/06/11 08:22:01;;;;;;;7.40;6.70;;;;;;;;;;5069754;28;20241;-76
2023/06/11 08:24:26;;;;;;;7.25;6.55;;;;;;;;;;5063631;28;20193;-77
2023/06/11 08:26:52;;;;;;;7.53;6.82;;;;;;;;;;5072292;28;20185;-76
2023/06/11 08:29:17;;;;;;;8.00;7.20;;;;;;;;;;5064263;28;20178;-76
2023/06/11 08:31:42;;;;;;;7.55;6.78;;;;;;;;;;5066622;28;20410;-77
2023/06/11 08:34:08;;;;;;;8.38;7.38;;;;;;;;;;5070224;28;20667;-77
2023/06/11 08:36:33;;;;;;;7.90;7.05;;;;;;;;;;5063121;28;20194;-77
2023/06/11 08:38:59;;;;;;;7.88;6.45;;;;;;;;;;5063741;28;20185;-77
2023/06/11 08:41:24;;;;;;;8.75;7.20;;;;;;;;;;5069644;28;20177;-75
2023/06/11 08:43:50;;;;;;;7.93;7.03;;;;;;;;;;5072064;28;20319;-77
2023/06/11 08:46:15;;;;;;;8.00;6.80;;;;;;;;;;5064393;28;20173;-75
2023/06/11 08:48:44;;;;;;;7.28;6.63;;;;;;;;;;5066908;28;20193;-76
2023/06/11 08:51:10;;;;;;;8.82;7.50;;;;;;;;;;5073622;28;20176;-76
2023/06/11 08:53:36;;;;;;;7.78;7.05;;;;;;;;;;5067150;28;20189;-77
2023/06/11 08:56:01;;;;;;;8.80;6.78;;;;;;;;;;5070230;28;20583;-78
2023/06/11 08:58:30;;;;;;;7.20;6.50;;;;;;;;;;5065030;28;20169;-77
2023/06/11 09:00:55;;;;;;;7.38;6.05;;;;;;;;;;5062757;28;20169;-76
2023/06/11 09:03:20;;;;;;;6.83;6.23;;;;;;;;;;5067243;28;20197;-76
2023/06/11 09:05:47;;;;;;;7.53;6.07;;;;;;;;;;5066157;28;20417;-77
2023/06/11 09:08:13;;;;;;;8.23;6.72;;;;;;;;;;5057780;28;20942;-76
2023/06/11 09:10:48;;;;;;;8.30;6.32;;;;;;;;;;5079623;28;20181;-77
2023/06/11 09:13:13;;;;;;;8.52;6.53;;;;;;;;;;5063648;28;20645;-76
2023/06/11 09:15:48;;;;;;;6.60;6.00;;;;;;;;;;5070001;28;20302;-77
2023/06/11 09:18:17;;;;;;;7.18;6.50;;;;;;;;;;5068399;28;20452;-77
2023/06/11 09:20:45;;;;;;;7.35;6.65;;;;;;;;;;5069054;28;20176;-77
2023/06/11 09:23:10;;;;;;;6.85;5.60;;;;;;;;;;5060003;28;20216;-78
2023/06/11 09:25:37;;;;;;;6.23;5.63;;;;;;;;;;5065761;28;20262;-77
2023/06/11 09:28:06;;;;;;;7.07;6.00;;;;;;;;;;5066146;28;20468;-77
2023/06/11 09:30:31;;;;;;;7.57;5.65;;;;;;;;;;5063046;28;20278;-78
2023/06/11 09:32:56;;;;;;;7.73;6.90;;;;;;;;;;5073616;28;20223;-78
2023/06/11 09:35:21;;;;;;;6.77;6.07;;;;;;;;;;5067785;28;20426;-77
2023/06/11 09:37:49;;;;;;;6.70;6.10;;;;;;;;;;5063305;28;20251;-76
2023/06/11 09:40:15;;;;;;;8.32;7.00;;;;;;;;;;5066809;28;20953;-75
2023/06/11 09:42:43;;;;;;;9.55;6.70;;;;;;;;;;5063489;28;20193;-78
2023/06/11 09:45:19;;;;;;;7.03;5.80;;;;;;;;;;5069010;28;20176;-78
2023/06/11 09:47:47;;;;;;;7.97;5.30;;;;;;;;;;5067066;28;20180;-78
2023/06/11 09:50:13;;;;;;;7.60;6.15;;;;;;;;;;5066572;28;20645;-77
2023/06/11 09:52:40;;;;;;;6.00;5.40;;;;;;;;;;5064583;28;20175;-78
2023/06/11 09:55:08;;;;;;;7.47;5.82;;;;;;;;;;5072772;28;20182;-76
2023/06/11 09:57:33;;;;;;;7.45;5.82;;;;;;;;;;5088040;28;20271;-76
2023/06/11 09:59:59;;;;;;;6.70;6.03;;;;;;;;;;5083346;28;20188;-77
2023/06/11 10:02:24;;;;;;;7.07;6.38;;;;;;;;;;5078495;28;20208;-77
2023/06/11 10:04:50;;;;;;;7.47;5.70;;;;;;;;;;5069077;28;20192;-77
2023/06/11 10:07:16;;;;;;;6.40;5.80;;;;;;;;;;5068025;28;20424;-77
2023/06/11 10:09:42;;;;;;;6.25;5.65;;;;;;;;;;5055244;28;20188;-77
2023/06/11 10:12:08;;;;;;;7.22;6.00;;;;;;;;;;5063729;28;21029;-77
2023/06/11 10:14:33;;;;;;;5.75;5.22;;;;;;;;;;5066782;28;20231;-77
2023/06/11 10:17:02;;;;;;;7.50;5.43;;;;;;;;;;5064523;28;20231;-77
2023/06/11 10:19:33;;;;;;;5.57;5.07;;;;;;;;;;5064704;28;20223;-77
2023/06/11 10:22:00;;;;;;;6.38;5.75;;;;;;;;;;5057897;28;20183;-77
2023/06/11 10:24:26;;;;;;;7.50;5.53;;;;;;;;;;5064004;28;20319;-77
2023/06/11 10:27:12;;;;;;;6.15;5.55;;;;;;;;;;5075127;28;20201;-77
2023/06/11 10:29:40;;;;;;;6.50;4.95;;;;;;;;;;5068794;28;20190;-76
2023/06/11 10:32:15;;;;;;;5.10;4.47;;;;;;;;;;5071920;28;20634;-77
2023/06/11 10:34:41;;;;;;;5.20;4.72;;;;;;;;;;5081208;28;20229;-78
2023/06/11 10:37:06;;;;;;;5.72;4.80;;;;;;;;;;5067792;28;20419;-77
2023/06/11 10:39:31;;;;;;;5.93;5.35;;;;;;;;;;5067977;28;20180;-77
2023/06/11 10:42:00;;;;;;;5.40;4.90;;;;;;;;;;5063007;28;20195;-77
2023/06/11 10:44:26;;;;;;;4.95;4.45;;;;;;;;;;5056735;28;20193;-77
2023/06/11 10:46:52;;;;;;;6.05;4.57;;;;;;;;;;5064013;28;20203;-78
2023/06/11 10:49:21;;;;;;;5.22;4.72;;;;;;;;;;5073432;28;20186;-77
2023/06/11 10:51:47;;;;;;;5.70;5.20;;;;;;;;;;5066762;28;20176;-78
2023/06/11 10:54:22;;;;;;;5.57;5.07;;;;;;;;;;5059303;28;20207;-77
2023/06/11 10:56:47;;;;;;;7.35;5.07;;;;;;;;;;5064581;28;20195;-77
2023/06/11 10:59:13;;;;;;;7.75;4.95;;;;;;;;;;5069822;28;20656;-77
2023/06/11 11:01:38;;;;;;;4.70;4.30;;;;;;;;;;5071295;28;20176;-76
2023/06/11 11:04:04;;;;;;;4.93;4.53;;;;;;;;;;5069662;28;20192;-75
2023/06/11 11:06:30;;;;;;;5.88;4.93;;;;;;;;;;5058782;28;20180;-78
2023/06/11 11:08:56;;;;;;;5.53;4.50;;;;;;;;;;5070105;28;20188;-76
2023/06/11 11:11:22;;;;;;;4.70;4.30;;;;;;;;;;5068699;28;20896;-77
2023/06/11 11:13:47;;;;;;;5.88;5.22;;;;;;;;;;5071985;28;20207;-78
2023/06/11 11:16:12;;;;;;;5.25;4.68;;;;;;;;;;5072997;28;20204;-77
2023/06/11 11:18:38;;;;;;;7.35;4.88;;;;;;;;;;5067631;28;20207;-78
2023/06/11 11:21:03;;;;;;;4.40;4.00;;;;;;;;;;5063816;28;20181;-75
2023/06/11 11:23:31;;;;;;;6.10;4.33;;;;;;;;;;5064299;28;20211;-76
2023/06/11 11:25:56;;;;;;;5.10;4.60;;;;;;;;;;5070311;28;20188;-76
2023/06/11 11:28:21;;;;;;;7.30;4.63;;;;;;;;;;5066680;28;20207;-76
2023/06/11 11:30:46;;;;;;;4.30;3.90;;;;;;;;;;5070294;28;20172;-78
2023/06/11 11:33:12;;;;;;;5.75;4.97;;;;;;;;;;5068934;28;20954;-77
2023/06/11 11:35:53;;;;;;;5.37;4.87;;;;;;;;;;5067415;28;20236;-75
2023/06/11 11:38:18;;;;;;;9.13;4.88;;;;;;;;;;5063989;28;20424;-77
2023/06/11 11:40:43;;;;;;;6.00;5.17;;;;;;;;;;5068845;28;20172;-76
2023/06/11 11:43:15;;;;;;;14.97;5.53;;;;;;;;;;5062083;28;20480;-76
2023/06/11 11:45:44;;;;;;;5.07;4.40;;;;;;;;;;5073180;28;20203;-77
2023/06/11 11:48:09;;;;;;;5.43;4.95;;;;;;;;;;5067655;28;20184;-76
2023/06/11 11:50:35;;;;;;;5.47;4.97;;;;;;;;;;5069312;28;20168;-76
2023/06/11 11:53:05;;;;;;;5.28;4.78;;;;;;;;;;5064628;28;20286;-77
2023/06/11 11:55:34;;;;;;;5.25;4.70;;;;;;;;;;5071396;28;20638;-76
2023/06/11 11:58:01;;;;;;;6.13;4.80;;;;;;;;;;5065413;28;20208;-78
2023/06/11 12:00:26;;;;;;;5.30;4.60;;;;;;;;;;5068823;28;20505;-77
2023/06/11 12:02:55;;;;;;;4.93;4.43;;;;;;;;;;5076879;28;20818;-76
2023/06/11 12:05:20;;;;;;;5.03;4.43;;;;;;;;;;5081238;28;20425;-77
2023/06/11 12:07:51;;;;;;;4.77;4.37;;;;;;;;;;5077151;28;20191;-76
2023/06/11 12:10:17;;;;;;;7.30;3.95;;;;;;;;;;5078449;28;20317;-74
2023/06/11 12:12:42;;;;;;;5.40;4.63;;;;;;;;;;5065821;28;20274;-77
2023/06/11 12:15:07;;;;;;;5.07;4.60;;;;;;;;;;5070175;28;20218;-79
2023/06/11 12:17:32;;;;;;;5.05;4.57;;;;;;;;;;5071725;28;20196;-78
2023/06/11 12:19:58;;;;;;;5.40;4.83;;;;;;;;;;5069785;28;20634;-78
2023/06/11 12:22:24;;;;;;;6.13;4.20;;;;;;;;;;5069660;28;20996;-77
2023/06/11 12:24:50;;;;;;;4.38;3.97;;;;;;;;;;5068785;28;21957;-78
2023/06/11 12:27:15;;;;;;;5.30;4.45;;;;;;;;;;5064614;28;20649;-79
2023/06/11 12:29:40;;;;;;;5.90;3.80;;;;;;;;;;5073666;28;20217;-78
2023/06/11 12:32:11;;;;;;;3.65;3.35;;;;;;;;;;5066347;28;20203;-79
2023/06/11 12:34:36;;;;;;;4.20;3.30;;;;;;;;;;5073696;28;20287;-79
2023/06/11 12:37:02;;;;;;;4.37;3.40;;;;;;;;;;5071346;28;20287;-77
2023/06/11 12:39:27;;;;;;;4.32;3.95;;;;;;;;;;5079815;28;20165;-77
2023/06/11 12:41:52;;;;;;;5.67;3.73;;;;;;;;;;5074434;28;20188;-78
2023/06/11 12:44:17;;;;;;;6.80;3.70;;;;;;;;;;5075804;28;20188;-78
2023/06/11 12:46:43;;;;;;;4.40;3.38;;;;;;;;;;5071521;28;20253;-78
2023/06/11 12:49:08;;;;;;;5.20;3.20;;;;;;;;;;5070466;28;20176;-77
2023/06/11 12:51:33;;;;;;;6.37;4.00;;;;;;;;;;5066838;28;20259;-77
2023/06/11 12:53:59;;;;;;;5.03;4.07;;;;;;;;;;5068417;28;20536;-77
2023/06/11 12:56:25;;;;;;;3.63;3.30;;;;;;;;;;5067902;28;20520;-78
2023/06/11 12:58:51;;;;;;;4.35;2.72;;;;;;;;;;5068299;28;20210;-77
2023/06/11 13:01:16;;;;;;;3.50;2.97;;;;;;;;;;5068521;28;20204;-79
2023/06/11 13:03:41;;;;;;;5.87;3.33;;;;;;;;;;5066476;28;20195;-77
2023/06/11 13:06:08;;;;;;;3.47;3.17;;;;;;;;;;5064749;28;20815;-79
2023/06/11 13:08:33;;;;;;;5.03;3.50;;;;;;;;;;5070807;28;20182;-78
2023/06/11 13:10:58;;;;;;;3.53;3.22;;;;;;;;;;5067943;28;20184;-78
2023/06/11 13:13:23;;;;;;;4.27;3.20;;;;;;;;;;5069463;28;20208;-78
2023/06/11 13:15:48;;;;;;;3.60;3.30;;;;;;;;;;5074756;28;20762;-78
2023/06/11 13:18:14;;;;;;;4.27;3.33;;;;;;;;;;5070618;28;20183;-78
2023/06/11 13:20:39;;;;;;;4.13;3.50;;;;;;;;;;5066151;28;20432;-77
2023/06/11 13:23:04;;;;;;;3.90;3.40;;;;;;;;;;5062986;28;20451;-76
2023/06/11 13:25:30;;;;;;;3.40;3.10;;;;;;;;;;5067300;28;20176;-78
2023/06/11 13:27:55;;;;;;;4.28;3.03;;;;;;;;;;5068992;28;20413;-79
2023/06/11 13:30:20;;;;;;;3.03;2.40;;;;;;;;;;5064190;28;20576;-78
2023/06/11 13:32:45;;;;;;;4.00;2.75;;;;;;;;;;5064668;28;20432;-77
2023/06/11 13:35:11;;;;;;;4.20;2.90;;;;;;;;;;5065803;28;20561;-78
2023/06/11 13:37:36;;;;;;;2.83;2.30;;;;;;;;;;5068821;28;20452;-77
2023/06/11 13:40:01;;;;;;;2.70;2.50;;;;;;;;;;5065325;28;20185;-77
2023/06/11 13:42:27;;;;;;;2.63;2.42;;;;;;;;;;5068696;28;20246;-76
2023/06/11 13:44:52;;;;;;;3.13;2.83;;;;;;;;;;5067310;28;20219;-78
2023/06/11 13:47:17;;;;;;;3.23;2.93;;;;;;;;;;5071318;28;20180;-78
2023/06/11 13:49:42;;;;;;;3.17;2.97;;;;;;;;;;5071528;28;20176;-77
2023/06/11 13:52:07;;;;;;;4.57;2.77;;;;;;;;;;5062053;28;20176;-78
2023/06/11 13:54:33;;;;;;;3.00;2.67;;;;;;;;;;5058867;28;20249;-77
2023/06/11 13:56:58;;;;;;;6.38;3.40;;;;;;;;;;5065631;28;20227;-79
2023/06/11 13:59:23;;;;;;;4.38;2.97;;;;;;;;;;5068493;28;20169;-77
2023/06/11 14:01:50;;;;;;;5.00;3.00;;;;;;;;;;5069435;28;20255;-79
2023/06/11 14:04:16;;;;;;;3.25;3.05;;;;;;;;;;5064192;28;20481;-78
2023/06/11 14:06:41;;;;;;;3.55;2.85;;;;;;;;;;5067247;28;20631;-77
2023/06/11 14:09:06;;;;;;;3.50;3.20;;;;;;;;;;5066034;28;20764;-77
2023/06/11 14:11:31;;;;;;;3.42;3.00;;;;;;;;;;5067139;28;20425;-78
2023/06/11 14:13:58;;;;;;;4.03;3.30;;;;;;;;;;5061870;28;20728;-78
2023/06/11 14:16:23;;;;;;;4.13;2.78;;;;;;;;;;5067774;28;20201;-77
2023/06/11 14:18:48;;;;;;;4.13;3.10;;;;;;;;;;5066505;28;20172;-79
2023/06/11 14:21:13;;;;;;;3.43;2.93;;;;;;;;;;5064707;28;20199;-80
2023/06/11 14:23:39;;;;;;;5.17;2.70;;;;;;;;;;5070105;28;20192;-77
2023/06/11 14:26:04;;;;;;;4.20;2.97;;;;;;;;;;5066145;28;20277;-79
2023/06/11 14:28:29;;;;;;;3.40;3.10;;;;;;;;;;5071690;28;20176;-77
2023/06/11 14:30:54;;;;;;;3.67;3.13;;;;;;;;;;5069300;28;20516;-77
2023/06/11 14:33:19;;;;;;;3.33;2.97;;;;;;;;;;5070628;28;20295;-78